Selma, Arkansas
Current Conditions -  °F | °C
As of 4:53 AM on Friday 31 Oct 2014 (Local Time) from KLLQ Reporting Station
Clear Clear  
Wind Chill: 54°   Ceiling: Unl
Heat Index: 54°   Visibility: 10mi
Dew Point: 46°   Wind: 7mph
Humidity: 75%   Direction: 310°NW
Pressure: 30.04"   Gusts: NA
Location:  33.6617°N, 91.5342°W
Report Text: KLLQ 310953Z AUTO 31006KT 10SM CLR 12/08 A3004 RMK AO2 SLP171 T01220078
Loading
Personal Weather Stations






























Interactive Weather Map
Tropical Storm Tracking
New forecast layout! Learn more

10-Day Weather Forecast

Advertisements
Track Severe Weather on mobile